Time;durP1;ratioP1;P1;durP2;ratioP2;P2;SDS_P1;SDS_P2;PMS_P1;PMS_P2;Temp;Humidity;BMP_temperature;BMP_pressure;BME280_temperature;BME280_humidity;BME280_pressure;Samples;Min_cycle;Max_cycle;Signal;HPM_P1;HPM_P2
2023/07/22 00:02:22;;;;;;;1.75;1.38;;;13.50;99.90;;;;;;4972763;28;20175;-77
2023/07/22 00:04:48;;;;;;;3.92;1.27;;;13.30;99.90;;;;;;4973236;28;20023;-77
2023/07/22 00:07:15;;;;;;;4.15;1.60;;;13.30;99.90;;;;;;4973392;28;20030;-78
2023/07/22 00:09:43;;;;;;;1.20;1.00;;;13.30;99.90;;;;;;4956573;28;20026;-77
2023/07/22 00:12:09;;;;;;;2.03;1.30;;;13.20;99.90;;;;;;4973824;28;20030;-78
2023/07/22 00:14:44;;;;;;;2.42;1.38;;;13.20;99.90;;;;;;4973808;28;20266;-78
2023/07/22 00:17:10;;;;;;;1.50;1.40;;;13.10;99.90;;;;;;4955758;28;20491;-78
2023/07/22 00:19:35;;;;;;;1.38;1.27;;;13.00;99.90;;;;;;4956003;28;20038;-77
2023/07/22 00:22:01;;;;;;;2.13;1.55;;;13.00;99.90;;;;;;4956491;28;20484;-78
2023/07/22 00:24:27;;;;;;;2.85;1.40;;;12.90;99.90;;;;;;4974192;28;20023;-78
2023/07/22 00:26:52;;;;;;;1.70;1.60;;;13.00;99.90;;;;;;4956965;28;20380;-78
2023/07/22 00:29:18;;;;;;;1.70;1.40;;;12.80;99.90;;;;;;4957368;28;20039;-77
2023/07/22 00:31:44;;;;;;;5.20;2.10;;;12.70;99.90;;;;;;4957633;28;20081;-77
2023/07/22 00:34:10;;;;;;;3.25;1.60;;;12.70;99.90;;;;;;4974966;28;20534;-77
2023/07/22 00:36:37;;;;;;;2.35;1.70;;;12.70;99.90;;;;;;4974031;28;20410;-77
2023/07/22 00:39:03;;;;;;;2.03;1.40;;;12.60;99.90;;;;;;4974750;28;20023;-78
2023/07/22 00:41:28;;;;;;;3.05;1.38;;;12.70;99.90;;;;;;4973510;28;20564;-77
2023/07/22 00:43:54;;;;;;;3.30;1.45;;;12.60;99.90;;;;;;4974471;28;20019;-78
2023/07/22 00:46:20;;;;;;;1.40;1.30;;;12.50;99.90;;;;;;4956971;28;20037;-78
2023/07/22 00:48:47;;;;;;;1.52;1.42;;;12.50;99.90;;;;;;4957138;28;20501;-77
2023/07/22 00:51:12;;;;;;;2.05;1.35;;;12.50;99.90;;;;;;4957167;28;20030;-78
2023/07/22 00:53:38;;;;;;;1.80;1.70;;;12.60;99.90;;;;;;4957020;28;20062;-78
2023/07/22 00:56:05;;;;;;;2.13;1.75;;;12.50;99.90;;;;;;4975216;28;20049;-78
2023/07/22 00:58:31;;;;;;;4.00;1.80;;;12.60;99.90;;;;;;4957472;28;20022;-77
2023/07/22 01:00:56;;;;;;;3.55;1.75;;;12.60;99.90;;;;;;4975099;28;20034;-77
2023/07/22 01:03:22;;;;;;;1.85;1.75;;;12.60;99.90;;;;;;4957503;28;20062;-77
2023/07/22 01:05:51;;;;;;;1.63;1.48;;;12.60;99.90;;;;;;4957452;28;20033;-77
2023/07/22 01:08:17;;;;;;;1.65;1.02;;;12.50;99.90;;;;;;4957030;28;20503;-77
2023/07/22 01:10:43;;;;;;;3.83;1.75;;;12.40;99.90;;;;;;4974467;28;20118;-77
2023/07/22 01:13:09;;;;;;;5.47;1.83;;;12.30;99.90;;;;;;4975304;28;20034;-78
2023/07/22 01:15:37;;;;;;;2.25;1.70;;;12.30;99.90;;;;;;4957417;28;20030;-77
2023/07/22 01:18:03;;;;;;;1.40;1.30;;;12.20;99.90;;;;;;4957870;28;20420;-77
2023/07/22 01:20:29;;;;;;;1.38;1.20;;;12.10;99.90;;;;;;4956860;28;20023;-77
2023/07/22 01:22:56;;;;;;;3.40;2.08;;;12.00;99.90;;;;;;4957392;28;20134;-77
2023/07/22 01:25:22;;;;;;;2.17;1.60;;;12.00;99.90;;;;;;4974621;28;20082;-77
2023/07/22 01:27:51;;;;;;;2.45;1.40;;;12.00;99.90;;;;;;4975019;28;20035;-77
2023/07/22 01:30:17;;;;;;;;;;;12.00;99.90;;;;;;4958184;28;20125;-78
2023/07/22 01:32:43;;;;;;;4.93;1.40;;;11.90;99.90;;;;;;4975758;28;20350;-77
2023/07/22 01:35:09;;;;;;;4.53;1.83;;;11.90;99.90;;;;;;4957769;28;20031;-78
2023/07/22 01:37:35;;;;;;;1.98;1.80;;;11.90;99.90;;;;;;4974988;28;20299;-78
2023/07/22 01:40:05;;;;;;;2.35;1.30;;;11.80;99.90;;;;;;4958373;28;20022;-78
2023/07/22 01:42:31;;;;;;;3.53;2.35;;;11.80;99.90;;;;;;4958323;28;20495;-77
2023/07/22 01:44:57;;;;;;;1.83;1.52;;;11.90;99.90;;;;;;4975464;28;20027;-77
2023/07/22 01:47:22;;;;;;;3.08;1.70;;;11.80;99.90;;;;;;4957723;28;20035;-78
2023/07/22 01:49:48;;;;;;;2.67;1.55;;;11.80;99.90;;;;;;4975153;28;20433;-78
2023/07/22 01:52:14;;;;;;;1.48;1.38;;;11.90;99.90;;;;;;4977770;28;20026;-77
2023/07/22 01:54:39;;;;;;;3.20;2.00;;;11.90;99.90;;;;;;4979597;28;20042;-79
2023/07/22 01:57:05;;;;;;;5.47;1.60;;;11.90;99.90;;;;;;4979636;28;20033;-78
2023/07/22 01:59:31;;;;;;;3.15;1.33;;;11.80;99.90;;;;;;4961789;28;20082;-78
2023/07/22 02:01:56;;;;;;;19.77;2.45;;;11.70;99.90;;;;;;4962420;28;20223;-77
2023/07/22 02:04:22;;;;;;;1.77;1.52;;;11.60;99.90;;;;;;4978883;28;20415;-78
2023/07/22 02:06:48;;;;;;;2.08;1.50;;;11.60;99.90;;;;;;4961900;28;20023;-77
2023/07/22 02:09:13;;;;;;;5.57;2.28;;;11.50;99.90;;;;;;4979268;28;20059;-78
2023/07/22 02:11:39;;;;;;;2.35;2.05;;;11.50;99.90;;;;;;4958063;28;20027;-78
2023/07/22 02:14:06;;;;;;;1.60;1.55;;;11.40;99.90;;;;;;4956963;28;20037;-78
2023/07/22 02:16:36;;;;;;;3.40;2.17;;;11.30;99.90;;;;;;4958056;28;20023;-78
2023/07/22 02:19:03;;;;;;;2.45;1.83;;;11.30;99.90;;;;;;4957962;28;20304;-77
2023/07/22 02:21:29;;;;;;;2.83;1.60;;;11.40;99.90;;;;;;4957946;28;20047;-77
2023/07/22 02:23:55;;;;;;;2.28;2.08;;;11.40;99.90;;;;;;4975370;28;20395;-78
2023/07/22 02:26:20;;;;;;;2.58;1.77;;;11.30;99.90;;;;;;4958149;28;20081;-77
2023/07/22 02:28:46;;;;;;;2.50;1.90;;;11.30;99.90;;;;;;4957950;28;20069;-77
2023/07/22 02:31:12;;;;;;;3.47;2.25;;;11.30;99.90;;;;;;4956956;28;20031;-78
2023/07/22 02:33:38;;;;;;;2.97;1.90;;;11.40;99.90;;;;;;4956948;28;20050;-78
2023/07/22 02:36:03;;;;;;;2.35;1.50;;;11.30;99.90;;;;;;4956891;28;20078;-78
2023/07/22 02:38:29;;;;;;;5.28;1.80;;;11.30;99.90;;;;;;4974884;28;20031;-77
2023/07/22 02:41:00;;;;;;;3.20;1.58;;;11.30;99.90;;;;;;4974262;28;20538;-77
2023/07/22 02:43:26;;;;;;;4.55;2.35;;;11.30;99.90;;;;;;4956776;28;20033;-78
2023/07/22 02:45:53;;;;;;;2.13;1.52;;;11.20;99.90;;;;;;4956378;28;20019;-78
2023/07/22 02:48:19;;;;;;;1.50;1.40;;;11.10;99.90;;;;;;4974570;28;20023;-78
2023/07/22 02:50:45;;;;;;;4.15;1.60;;;11.10;99.90;;;;;;4956670;28;20042;-79
2023/07/22 02:53:11;;;;;;;3.50;2.03;;;11.10;99.90;;;;;;4956679;28;20130;-77
2023/07/22 02:55:36;;;;;;;1.92;1.25;;;11.10;99.90;;;;;;4974563;28;20109;-77
2023/07/22 02:58:02;;;;;;;5.50;2.17;;;11.10;99.90;;;;;;4957332;28;20031;-78
2023/07/22 03:00:28;;;;;;;1.92;1.67;;;11.10;99.90;;;;;;4957479;28;20058;-77
2023/07/22 03:03:00;;;;;;;1.52;1.42;;;11.10;99.90;;;;;;4956815;28;20146;-77
2023/07/22 03:05:27;;;;;;;2.05;1.73;;;11.10;99.90;;;;;;4973904;28;20479;-77
2023/07/22 03:07:53;;;;;;;1.27;1.15;;;11.20;99.90;;;;;;4973344;28;20037;-79
2023/07/22 03:10:19;;;;;;;1.40;1.30;;;11.20;99.90;;;;;;4956090;28;20042;-78
2023/07/22 03:12:44;;;;;;;1.23;1.13;;;11.00;99.90;;;;;;4956463;28;20066;-77
2023/07/22 03:15:12;;;;;;;1.67;1.55;;;10.90;99.90;;;;;;4956260;28;20054;-78
2023/07/22 03:17:39;;;;;;;4.00;2.10;;;10.80;99.90;;;;;;4956240;28;20031;-77
2023/07/22 03:20:16;;;;;;;3.13;1.40;;;10.80;99.90;;;;;;4956401;28;20054;-79
2023/07/22 03:22:42;;;;;;;2.58;1.88;;;10.80;99.90;;;;;;4955892;28;20142;-79
2023/07/22 03:25:13;;;;;;;1.58;1.48;;;10.80;99.90;;;;;;4973515;28;20117;-78
2023/07/22 03:27:39;;;;;;;1.50;1.40;;;10.70;99.90;;;;;;4973995;28;20049;-78
2023/07/22 03:30:15;;;;;;;2.30;1.80;;;10.70;99.90;;;;;;4956506;28;20212;-78
2023/07/22 03:32:42;;;;;;;3.28;1.73;;;10.70;99.90;;;;;;4956220;28;20049;-77
2023/07/22 03:35:11;;;;;;;2.97;1.50;;;10.60;99.90;;;;;;4973458;28;20107;-78
2023/07/22 03:37:37;;;;;;;2.83;1.88;;;10.70;99.90;;;;;;4956135;28;20085;-78
2023/07/22 03:40:10;;;;;;;4.55;1.77;;;10.80;99.90;;;;;;4955852;28;20033;-78
2023/07/22 03:42:36;;;;;;;1.98;1.67;;;10.80;99.90;;;;;;4955669;28;20113;-77
2023/07/22 03:45:02;;;;;;;3.25;1.73;;;10.80;99.90;;;;;;4955536;28;20129;-77
2023/07/22 03:47:27;;;;;;;3.90;1.55;;;10.70;99.90;;;;;;4955684;28;20027;-77
2023/07/22 03:49:53;;;;;;;2.45;1.75;;;10.70;99.90;;;;;;4955621;28;20041;-77
2023/07/22 03:52:19;;;;;;;1.80;1.67;;;10.70;99.90;;;;;;4972551;28;20043;-77
2023/07/22 03:54:45;;;;;;;2.60;2.15;;;10.70;99.90;;;;;;4955575;28;20041;-77
2023/07/22 03:57:10;;;;;;;4.35;2.17;;;10.70;99.90;;;;;;4973481;28;20058;-77
2023/07/22 03:59:36;;;;;;;1.95;1.63;;;10.80;99.90;;;;;;4955909;28;20468;-77
2023/07/22 04:02:02;;;;;;;1.92;1.20;;;10.80;99.90;;;;;;4956248;28;20035;-79
2023/07/22 04:04:29;;;;;;;2.38;1.40;;;10.80;99.90;;;;;;4974100;28;20042;-77
2023/07/22 04:06:54;;;;;;;2.22;2.03;;;10.80;99.90;;;;;;4973332;28;20022;-78
2023/07/22 04:09:20;;;;;;;2.80;1.92;;;10.80;99.90;;;;;;4957976;28;20491;-78
2023/07/22 04:11:45;;;;;;;3.67;2.33;;;10.90;99.90;;;;;;4957153;28;20033;-78
2023/07/22 04:14:12;;;;;;;2.55;2.20;;;11.00;99.90;;;;;;4975362;28;20038;-77
2023/07/22 04:16:38;;;;;;;1.98;1.67;;;11.00;99.90;;;;;;4957234;28;20023;-77
2023/07/22 04:19:06;;;;;;;1.60;1.50;;;11.10;99.90;;;;;;4974562;28;20038;-79
2023/07/22 04:21:31;;;;;;;2.42;1.70;;;11.10;99.90;;;;;;4958235;28;20066;-78
2023/07/22 04:23:57;;;;;;;2.72;2.42;;;11.10;99.90;;;;;;4957625;28;20058;-78
2023/07/22 04:26:23;;;;;;;7.47;1.83;;;11.20;99.90;;;;;;4956014;28;20023;-77
2023/07/22 04:28:48;;;;;;;3.40;2.03;;;11.10;99.90;;;;;;4976586;28;20022;-78
2023/07/22 04:31:14;;;;;;;2.85;1.73;;;11.30;99.90;;;;;;4958794;28;20494;-78
2023/07/22 04:33:41;;;;;;;2.13;1.92;;;11.30;99.90;;;;;;4958287;28;20093;-77
2023/07/22 04:36:07;;;;;;;1.98;1.88;;;11.40;99.90;;;;;;4959145;28;20027;-78
2023/07/22 04:38:33;;;;;;;5.85;1.98;;;11.40;99.90;;;;;;4960257;28;20094;-79
2023/07/22 04:41:00;;;;;;;2.15;1.50;;;11.60;99.90;;;;;;4960398;28;20026;-77
2023/07/22 04:43:26;;;;;;;1.95;1.35;;;11.70;99.90;;;;;;4960400;28;20077;-77
2023/07/22 04:45:53;;;;;;;1.60;1.27;;;11.80;99.90;;;;;;4959833;28;20196;-79
2023/07/22 04:48:23;;;;;;;4.10;2.03;;;11.90;99.90;;;;;;4960346;28;20031;-77
2023/07/22 04:50:48;;;;;;;;;;;11.90;99.90;;;;;;4960243;28;20515;-78
2023/07/22 04:53:15;;;;;;;1.60;1.48;;;11.90;99.90;;;;;;4959371;28;19914;-77
2023/07/22 04:55:41;;;;;;;1.88;1.25;;;12.00;99.90;;;;;;4956421;28;20034;-77
2023/07/22 04:58:09;;;;;;;3.25;1.50;;;12.10;99.90;;;;;;4973894;28;20027;-78
2023/07/22 05:00:36;;;;;;;2.03;1.77;;;12.10;99.90;;;;;;4973564;28;20031;-79
2023/07/22 05:03:02;;;;;;;2.10;1.30;;;12.30;99.90;;;;;;4956350;28;20081;-78
2023/07/22 05:05:28;;;;;;;2.22;1.63;;;12.40;99.90;;;;;;4956179;28;20035;-77
2023/07/22 05:07:54;;;;;;;2.95;1.50;;;12.40;99.90;;;;;;4955530;28;20070;-77
2023/07/22 05:10:20;;;;;;;4.82;1.80;;;12.40;99.90;;;;;;4973249;28;20514;-77
2023/07/22 05:12:45;;;;;;;2.88;1.42;;;12.50;99.90;;;;;;4955372;28;20122;-77
2023/07/22 05:15:12;;;;;;;1.70;1.48;;;12.60;99.90;;;;;;4955106;28;20038;-77
2023/07/22 05:17:38;;;;;;;3.65;2.05;;;12.60;99.90;;;;;;4955449;28;20088;-77
2023/07/22 05:20:12;;;;;;;3.58;1.98;;;12.70;99.90;;;;;;4971569;28;20030;-78
2023/07/22 05:22:38;;;;;;;1.65;1.55;;;12.80;99.90;;;;;;4953940;28;20134;-78
2023/07/22 05:25:06;;;;;;;2.53;2.03;;;13.00;99.90;;;;;;4971113;28;20021;-78
2023/07/22 05:27:31;;;;;;;2.28;1.55;;;13.10;99.90;;;;;;4970890;28;20218;-77
2023/07/22 05:29:57;;;;;;;1.50;1.40;;;13.20;99.90;;;;;;4953506;28;20237;-77
2023/07/22 05:32:23;;;;;;;1.60;1.50;;;13.40;99.90;;;;;;4970721;28;20115;-77
2023/07/22 05:34:48;;;;;;;2.38;1.55;;;13.40;99.90;;;;;;4970835;28;20424;-78
2023/07/22 05:37:14;;;;;;;1.90;1.67;;;13.50;99.90;;;;;;4952784;28;20069;-77
2023/07/22 05:39:39;;;;;;;2.55;1.58;;;13.70;99.90;;;;;;4970313;28;20019;-77
2023/07/22 05:42:06;;;;;;;3.42;1.40;;;13.80;99.90;;;;;;4952883;28;20026;-77
2023/07/22 05:44:31;;;;;;;1.27;1.20;;;13.80;99.90;;;;;;4953178;28;20520;-77
2023/07/22 05:46:57;;;;;;;2.10;1.63;;;14.00;99.90;;;;;;4952832;28;20045;-78
2023/07/22 05:49:23;;;;;;;2.78;2.40;;;14.20;99.90;;;;;;4970529;28;20027;-77
2023/07/22 05:51:48;;;;;;;1.45;1.33;;;14.40;99.90;;;;;;4952681;28;20078;-78
2023/07/22 05:54:14;;;;;;;3.05;1.73;;;14.50;99.90;;;;;;4970368;28;20033;-78
2023/07/22 05:56:41;;;;;;;2.60;1.40;;;14.60;99.90;;;;;;4952768;28;20027;-77
2023/07/22 05:59:06;;;;;;;1.50;1.40;;;14.80;99.90;;;;;;4952767;28;20329;-77
2023/07/22 06:01:32;;;;;;;1.73;1.25;;;15.00;99.90;;;;;;4952823;28;20027;-77
2023/07/22 06:03:58;;;;;;;2.33;1.40;;;15.20;99.90;;;;;;4952899;28;20019;-79
2023/07/22 06:06:23;;;;;;;1.42;1.27;;;15.40;99.90;;;;;;4952670;28;20038;-78
2023/07/22 06:08:49;;;;;;;6.40;1.70;;;15.50;99.90;;;;;;4952663;28;20380;-77
2023/07/22 06:11:15;;;;;;;4.10;1.38;;;15.70;99.90;;;;;;4952786;28;20411;-77
2023/07/22 06:13:40;;;;;;;3.92;1.50;;;15.80;99.90;;;;;;4952749;28;20034;-77
2023/07/22 06:16:06;;;;;;;4.53;1.40;;;16.20;99.90;;;;;;4952731;28;20023;-78
2023/07/22 06:18:31;;;;;;;1.02;1.02;;;16.70;99.90;;;;;;4969918;28;20030;-77
2023/07/22 06:20:57;;;;;;;1.52;1.33;;;17.20;99.90;;;;;;4952093;28;20054;-77
2023/07/22 06:23:23;;;;;;;2.20;1.50;;;17.70;99.90;;;;;;4970315;28;20035;-78
2023/07/22 06:25:48;;;;;;;4.60;2.15;;;17.90;99.90;;;;;;4952853;28;20428;-78
2023/07/22 06:28:14;;;;;;;1.35;1.25;;;17.90;99.90;;;;;;4969986;28;20033;-78
2023/07/22 06:30:39;;;;;;;2.72;1.38;;;18.10;99.90;;;;;;4970098;28;20102;-78
2023/07/22 06:33:05;;;;;;;2.30;1.38;;;18.30;99.90;;;;;;4970899;28;20043;-78
2023/07/22 06:35:31;;;;;;;1.40;1.30;;;18.10;99.90;;;;;;4952669;28;20093;-77
2023/07/22 06:37:56;;;;;;;2.42;1.08;;;18.00;99.90;;;;;;4970791;28;20027;-77
2023/07/22 06:40:22;;;;;;;4.53;1.88;;;18.00;99.90;;;;;;4957854;28;20027;-77
2023/07/22 06:42:48;;;;;;;3.00;1.40;;;17.90;99.90;;;;;;4956576;28;20026;-78
2023/07/22 06:45:13;;;;;;;6.03;1.63;;;18.10;99.90;;;;;;4957026;28;20026;-78
2023/07/22 06:47:39;;;;;;;2.47;1.75;;;18.10;99.90;;;;;;4974204;28;20030;-78
2023/07/22 06:50:05;;;;;;;2.17;1.23;;;18.30;99.90;;;;;;4956095;28;20424;-78
2023/07/22 06:52:32;;;;;;;4.30;2.05;;;18.50;99.90;;;;;;4955022;28;20050;-77
2023/07/22 06:54:57;;;;;;;3.35;1.70;;;18.80;99.90;;;;;;4955574;28;20079;-78
2023/07/22 06:57:25;;;;;;;1.55;1.45;;;19.20;99.90;;;;;;4973328;28;20031;-78
2023/07/22 06:59:53;;;;;;;2.25;1.67;;;20.20;99.90;;;;;;4973196;28;20031;-79
2023/07/22 07:02:19;;;;;;;4.15;1.90;;;21.50;99.90;;;;;;4973245;28;20023;-79
2023/07/22 07:04:45;;;;;;;2.92;1.42;;;22.50;99.90;;;;;;4973796;28;20031;-78
2023/07/22 07:07:12;;;;;;;2.38;1.83;;;23.50;99.90;;;;;;4972706;28;20031;-78
2023/07/22 07:09:38;;;;;;;1.95;1.40;;;23.90;99.90;;;;;;4955481;28;20023;-78
2023/07/22 07:12:04;;;;;;;4.32;1.67;;;24.10;98.90;;;;;;4955291;28;20035;-78
2023/07/22 07:14:29;;;;;;;2.78;1.40;;;24.20;97.40;;;;;;4955390;28;20026;-78
2023/07/22 07:16:55;;;;;;;1.65;1.55;;;24.60;96.70;;;;;;4955435;28;20030;-79
2023/07/22 07:19:21;;;;;;;2.10;1.30;;;25.40;94.10;;;;;;4955403;28;20423;-78
2023/07/22 07:21:47;;;;;;;1.30;1.20;;;26.80;90.40;;;;;;4955059;28;20070;-80
2023/07/22 07:24:12;;;;;;;2.45;1.08;;;27.10;86.50;;;;;;4955237;28;20039;-78
2023/07/22 07:26:38;;;;;;;1.05;1.00;;;26.70;83.90;;;;;;4955428;28;20372;-79
2023/07/22 07:29:05;;;;;;;1.77;0.98;;;25.80;82.70;;;;;;4958715;28;20129;-78
2023/07/22 07:31:31;;;;;;;1.40;1.10;;;24.80;85.00;;;;;;4973000;28;20058;-78
2023/07/22 07:33:56;;;;;;;3.65;1.38;;;25.10;84.10;;;;;;4955060;28;20070;-78
2023/07/22 07:36:22;;;;;;;2.45;1.13;;;25.60;81.30;;;;;;4955117;28;20053;-78
2023/07/22 07:38:47;;;;;;;3.25;1.23;;;26.10;81.70;;;;;;4955512;28;20078;-79
2023/07/22 07:41:14;;;;;;;2.65;1.20;;;26.70;78.20;;;;;;4955010;28;20042;-78
2023/07/22 07:43:41;;;;;;;15.93;2.35;;;27.50;75.80;;;;;;4963592;28;20034;-80
2023/07/22 07:46:17;;;;;;;1.98;1.42;;;28.00;72.90;;;;;;4969046;28;20034;-80
2023/07/22 07:48:44;;;;;;;4.47;1.38;;;28.10;70.70;;;;;;4972303;28;20435;-78
2023/07/22 07:51:11;;;;;;;1.63;1.38;;;27.80;71.50;;;;;;4954146;28;20093;-78
2023/07/22 07:53:37;;;;;;;4.25;1.42;;;27.30;71.70;;;;;;4972132;28;20351;-78
2023/07/22 07:56:03;;;;;;;1.67;1.33;;;27.30;72.20;;;;;;4954875;28;20279;-78
2023/07/22 07:58:29;;;;;;;2.03;1.70;;;27.90;71.90;;;;;;4972099;28;20443;-78
2023/07/22 08:00:54;;;;;;;2.35;1.20;;;28.20;69.60;;;;;;4954512;28;20027;-78
2023/07/22 08:03:20;;;;;;;2.45;1.20;;;27.70;72.40;;;;;;4971689;28;20270;-79
2023/07/22 08:05:46;;;;;;;1.67;1.58;;;26.10;73.30;;;;;;4971522;28;20121;-78
2023/07/22 08:08:11;;;;;;;1.63;1.40;;;24.90;76.80;;;;;;4954531;28;20110;-78
2023/07/22 08:10:38;;;;;;;1.80;1.63;;;23.90;80.90;;;;;;4954589;28;20093;-79
2023/07/22 08:13:04;;;;;;;1.38;1.02;;;23.10;84.50;;;;;;4954144;28;20039;-78
2023/07/22 08:15:30;;;;;;;2.35;1.20;;;22.30;82.20;;;;;;4971709;28;20749;-78
2023/07/22 08:17:55;;;;;;;1.13;0.93;;;21.60;88.70;;;;;;4954394;28;20038;-78
2023/07/22 08:20:21;;;;;;;1.15;1.05;;;21.30;81.20;;;;;;4971504;28;20019;-78
2023/07/22 08:22:47;;;;;;;0.70;0.70;;;21.80;77.80;;;;;;4953898;28;20051;-78
2023/07/22 08:25:13;;;;;;;0.80;0.75;;;23.30;74.60;;;;;;4954031;28;20025;-78
2023/07/22 08:27:38;;;;;;;0.68;0.68;;;24.50;66.80;;;;;;4971751;28;20498;-78
2023/07/22 08:30:05;;;;;;;0.88;0.70;;;25.60;63.70;;;;;;4971444;28;20527;-78
2023/07/22 08:32:30;;;;;;;0.90;0.90;;;25.20;63.00;;;;;;4971398;28;20139;-78
2023/07/22 08:34:56;;;;;;;0.63;0.50;;;23.90;63.60;;;;;;4953788;28;20178;-78
2023/07/22 08:37:22;;;;;;;0.60;0.60;;;24.60;64.00;;;;;;4970759;28;20492;-78
2023/07/22 08:39:47;;;;;;;0.88;0.60;;;25.20;60.90;;;;;;4953800;28;20102;-78
2023/07/22 08:42:17;;;;;;;1.35;0.70;;;25.20;61.00;;;;;;4953524;28;20121;-78
2023/07/22 08:44:44;;;;;;;0.95;0.80;;;25.80;59.90;;;;;;4970986;28;20041;-78
2023/07/22 08:47:16;;;;;;;0.60;0.60;;;25.70;60.50;;;;;;4971191;28;20026;-78
2023/07/22 08:49:48;;;;;;;1.15;1.05;;;25.50;62.10;;;;;;4953807;28;20026;-79
2023/07/22 08:52:15;;;;;;;1.65;0.80;;;25.90;61.90;;;;;;4970410;28;20141;-78
2023/07/22 08:54:41;;;;;;;0.95;0.70;;;26.10;62.10;;;;;;4953795;28;20109;-78
2023/07/22 08:57:09;;;;;;;0.63;0.63;;;26.90;59.80;;;;;;4970630;28;20037;-78
2023/07/22 08:59:35;;;;;;;1.45;0.77;;;26.70;64.20;;;;;;4953438;28;20023;-78
2023/07/22 09:02:02;;;;;;;0.70;0.60;;;25.80;62.10;;;;;;4970324;28;20054;-79
2023/07/22 09:04:27;;;;;;;1.88;0.70;;;25.20;64.60;;;;;;4953815;28;20043;-78
2023/07/22 09:06:55;;;;;;;0.57;0.57;;;24.40;60.20;;;;;;4970764;28;20033;-78
2023/07/22 09:09:22;;;;;;;0.93;0.90;;;24.50;63.40;;;;;;4953532;28;20015;-78
2023/07/22 09:11:49;;;;;;;1.58;1.15;;;24.90;64.00;;;;;;4953512;28;20061;-78
2023/07/22 09:14:18;;;;;;;1.85;0.73;;;25.20;64.70;;;;;;4953187;28;20069;-79
2023/07/22 09:16:44;;;;;;;3.22;0.85;;;25.80;64.90;;;;;;4953063;28;20031;-78
2023/07/22 09:19:09;;;;;;;1.05;0.75;;;26.30;62.40;;;;;;4970391;28;20061;-78
2023/07/22 09:21:35;;;;;;;0.70;0.70;;;26.50;63.70;;;;;;4969933;28;20043;-78
2023/07/22 09:24:02;;;;;;;1.02;0.80;;;26.10;64.50;;;;;;4953304;28;20038;-78
2023/07/22 09:26:32;;;;;;;1.48;0.77;;;26.10;59.20;;;;;;4953091;28;20030;-78
2023/07/22 09:28:58;;;;;;;0.50;0.43;;;25.90;60.80;;;;;;4970401;28;20098;-78
2023/07/22 09:31:31;;;;;;;2.00;0.93;;;25.60;58.80;;;;;;4952619;28;20534;-78
2023/07/22 09:34:09;;;;;;;1.10;0.90;;;25.40;60.90;;;;;;4970469;28;20058;-79
2023/07/22 09:36:56;;;;;;;0.70;0.70;;;25.70;59.50;;;;;;4970049;28;20065;-78
2023/07/22 09:39:22;;;;;;;1.08;0.82;;;25.80;59.80;;;;;;4953249;28;20026;-78
2023/07/22 09:41:48;;;;;;;3.75;1.02;;;25.80;59.40;;;;;;4970332;28;20035;-78
2023/07/22 09:44:14;;;;;;;1.73;0.70;;;26.00;59.20;;;;;;4952900;28;20395;-78
2023/07/22 09:46:40;;;;;;;1.08;0.90;;;26.30;58.80;;;;;;4970504;28;20031;-79
2023/07/22 09:49:10;;;;;;;2.38;1.77;;;26.30;57.00;;;;;;4970121;28;20035;-78
2023/07/22 09:51:38;;;;;;;1.85;0.95;;;26.20;59.30;;;;;;4952812;28;20077;-79
2023/07/22 09:54:04;;;;;;;0.70;0.70;;;26.40;61.60;;;;;;4952835;28;20164;-78
2023/07/22 09:56:30;;;;;;;0.70;0.70;;;26.50;60.10;;;;;;4952689;28;20026;-78
2023/07/22 09:58:59;;;;;;;0.85;0.85;;;26.20;59.30;;;;;;4952940;28;20061;-78
2023/07/22 10:01:25;;;;;;;0.70;0.70;;;26.10;59.80;;;;;;4970475;28;20042;-78
2023/07/22 10:03:56;;;;;;;1.25;1.10;;;25.70;62.20;;;;;;4970305;28;20031;-78
2023/07/22 10:06:27;;;;;;;1.00;0.90;;;25.50;61.10;;;;;;4952505;28;20080;-78
2023/07/22 10:08:57;;;;;;;2.67;1.00;;;25.50;60.90;;;;;;4953024;28;20427;-78
2023/07/22 10:11:26;;;;;;;0.50;0.50;;;24.70;61.10;;;;;;4952755;28;20515;-78
2023/07/22 10:13:53;;;;;;;1.25;0.80;;;25.10;62.60;;;;;;4954619;28;20043;-79
2023/07/22 10:16:18;;;;;;;1.35;0.90;;;25.00;63.10;;;;;;4956585;28;20027;-78
2023/07/22 10:18:47;;;;;;;1.25;0.82;;;25.20;61.00;;;;;;4956754;28;20034;-78
2023/07/22 10:21:13;;;;;;;1.08;0.68;;;25.50;62.60;;;;;;4957626;28;20500;-78
2023/07/22 10:23:40;;;;;;;0.90;0.88;;;24.90;64.10;;;;;;4974309;28;20042;-78
2023/07/22 10:26:06;;;;;;;0.70;0.70;;;24.70;63.50;;;;;;4956589;28;20360;-78
2023/07/22 10:28:32;;;;;;;1.73;1.17;;;24.70;63.40;;;;;;4956163;28;20078;-78
2023/07/22 10:30:59;;;;;;;0.70;0.70;;;25.10;62.90;;;;;;4956350;28;20027;-78
2023/07/22 10:33:26;;;;;;;2.95;0.60;;;25.10;63.20;;;;;;4956096;28;20034;-77
2023/07/22 10:36:08;;;;;;;0.60;0.60;;;25.50;61.80;;;;;;4961207;28;20035;-78
2023/07/22 10:38:35;;;;;;;0.50;0.50;;;25.10;62.60;;;;;;4964398;28;20034;-79
2023/07/22 10:41:10;;;;;;;1.15;0.77;;;25.10;60.50;;;;;;4956618;28;20046;-78
2023/07/22 10:43:36;;;;;;;0.98;0.82;;;25.30;60.10;;;;;;4956236;28;20026;-79
2023/07/22 10:46:43;;;;;;;1.10;0.82;;;25.40;62.60;;;;;;4956047;28;20361;-79
2023/07/22 10:49:13;;;;;;;2.38;0.60;;;25.70;61.70;;;;;;4956294;28;20506;-79
2023/07/22 10:51:39;;;;;;;3.15;0.70;;;26.30;62.00;;;;;;4955624;28;20118;-78
2023/07/22 10:54:12;;;;;;;1.48;0.70;;;26.10;60.60;;;;;;4955681;28;20129;-78
2023/07/22 10:56:38;;;;;;;1.13;0.50;;;25.70;60.20;;;;;;4955961;28;20022;-77
2023/07/22 10:59:03;;;;;;;0.88;0.85;;;25.10;61.50;;;;;;4954857;28;20061;-78
2023/07/22 11:01:34;;;;;;;0.93;0.80;;;25.60;60.50;;;;;;4956069;28;20050;-78
2023/07/22 11:04:32;;;;;;;0.95;0.82;;;26.10;61.90;;;;;;4955609;28;20114;-79
2023/07/22 11:07:05;;;;;;;0.77;0.77;;;25.90;61.00;;;;;;4955258;28;20034;-78
2023/07/22 11:09:32;;;;;;;0.70;0.70;;;26.30;60.20;;;;;;4973176;28;20158;-79
2023/07/22 11:12:02;;;;;;;0.90;0.88;;;26.20;59.80;;;;;;4955231;28;20109;-78
2023/07/22 11:14:32;;;;;;;1.70;1.52;;;25.70;61.70;;;;;;4972922;28;20030;-78
2023/07/22 11:17:07;;;;;;;1.27;0.77;;;25.90;61.60;;;;;;4955601;28;20030;-78
2023/07/22 11:19:33;;;;;;;1.00;0.73;;;25.80;61.20;;;;;;4955656;28;20027;-78
2023/07/22 11:22:00;;;;;;;1.23;1.13;;;26.00;61.40;;;;;;4954976;28;20097;-78
2023/07/22 11:24:25;;;;;;;1.55;0.80;;;25.40;62.20;;;;;;4954727;28;20063;-78
2023/07/22 11:26:52;;;;;;;0.60;0.60;;;26.00;61.30;;;;;;4954839;28;20026;-78
2023/07/22 11:29:19;;;;;;;0.98;0.88;;;25.80;60.50;;;;;;4954850;28;20070;-78
2023/07/22 11:31:46;;;;;;;1.88;0.70;;;26.60;60.30;;;;;;4954999;28;20022;-78
2023/07/22 11:34:13;;;;;;;0.75;0.75;;;26.60;58.60;;;;;;4955013;28;20043;-78
2023/07/22 11:36:39;;;;;;;0.85;0.80;;;26.60;58.40;;;;;;4955169;28;20027;-78
2023/07/22 11:39:15;;;;;;;0.80;0.63;;;26.40;59.50;;;;;;4955061;28;20027;-79
2023/07/22 11:41:42;;;;;;;2.35;0.90;;;26.60;58.60;;;;;;4972640;28;20030;-78
2023/07/22 11:44:09;;;;;;;1.00;0.93;;;27.40;57.10;;;;;;4954977;28;20108;-79
2023/07/22 11:46:56;;;;;;;1.00;0.95;;;27.70;56.70;;;;;;4954935;28;20037;-78
2023/07/22 11:49:46;;;;;;;0.93;0.80;;;27.90;59.50;;;;;;4954748;28;20184;-78
2023/07/22 11:52:19;;;;;;;2.63;0.90;;;27.90;57.20;;;;;;4972171;28;20109;-79
2023/07/22 11:54:46;;;;;;;1.30;1.17;;;28.40;55.80;;;;;;4973395;28;20029;-79
2023/07/22 11:57:17;;;;;;;1.80;1.13;;;28.70;55.00;;;;;;4955871;28;20378;-79
2023/07/22 11:59:53;;;;;;;1.10;0.93;;;28.90;54.40;;;;;;4955813;28;20364;-79
2023/07/22 12:02:23;;;;;;;1.98;0.88;;;28.50;56.10;;;;;;4954446;28;20033;-78
2023/07/22 12:04:52;;;;;;;1.00;0.75;;;28.30;57.50;;;;;;4954442;28;20034;-79
2023/07/22 12:07:29;;;;;;;1.35;1.25;;;28.50;55.60;;;;;;4954231;28;20033;-79
2023/07/22 12:09:57;;;;;;;1.10;1.00;;;28.50;54.80;;;;;;4971832;28;20026;-79
2023/07/22 12:12:53;;;;;;;1.73;1.13;;;28.50;55.10;;;;;;4972010;28;20031;-78
2023/07/22 12:15:20;;;;;;;1.15;0.93;;;29.40;55.60;;;;;;4955389;28;20039;-78
2023/07/22 12:17:53;;;;;;;1.77;1.45;;;28.90;55.30;;;;;;4954280;28;20022;-78
2023/07/22 12:20:22;;;;;;;0.98;0.85;;;29.50;56.80;;;;;;4954183;28;20387;-78
2023/07/22 12:22:48;;;;;;;1.90;1.10;;;30.20;54.40;;;;;;4971303;28;20411;-79
2023/07/22 12:25:14;;;;;;;0.75;0.75;;;29.80;52.80;;;;;;4971740;28;20513;-79
2023/07/22 12:27:40;;;;;;;1.13;0.77;;;30.20;52.10;;;;;;4954245;28;20478;-79
2023/07/22 12:30:06;;;;;;;0.90;0.88;;;29.30;54.20;;;;;;4954295;28;20318;-79
2023/07/22 12:32:33;;;;;;;2.97;0.93;;;29.20;53.70;;;;;;4971494;28;20069;-79
2023/07/22 12:34:58;;;;;;;0.82;0.73;;;29.60;54.90;;;;;;4954054;28;20166;-78
2023/07/22 12:37:25;;;;;;;0.70;0.70;;;29.00;53.50;;;;;;4952978;28;20046;-78
2023/07/22 12:39:51;;;;;;;1.35;1.15;;;29.20;56.70;;;;;;4953813;28;20034;-79
2023/07/22 12:42:17;;;;;;;3.15;1.48;;;29.80;54.40;;;;;;4953691;28;20149;-79
2023/07/22 12:44:42;;;;;;;1.92;0.63;;;29.60;54.60;;;;;;4953736;28;20089;-78
2023/07/22 12:47:08;;;;;;;1.90;0.70;;;30.10;53.10;;;;;;4971369;28;20061;-79
2023/07/22 12:49:34;;;;;;;1.42;1.00;;;29.10;53.70;;;;;;4971628;28;20027;-79